Latest Weather Observations for Weipa

IDQ60801

Issued at 1:05 pm EST Thursday 24 April 2014 (issued every 30 minutes, with the page automatically refreshed every 10 minutes)

About weather observations | Map of weather stations | Latest weather observations for QLD | Other Formats
Station Details ID: 027045 Name: WEIPA AERO Lat: -12.68 Lon: 141.92 Height: 17.96 m
Data from the previous 72 hours. | See also: Recent months at Weipa
Date/Time
EST
Temp
°C
App
Temp
°C
Dew
Point
Rel
Hum
%
Delta-T
°C
Wind Press
QNH
hPa
Press
MSL
hPa
Rain
since 9 am
mm
Dir
 
Spd
km/h
Gust
km/h
Spd
kts
Gust
kts
24/01:00pm 30.2 31.3 22.0 61 5.6 E 19 30 10 16 1007.9 - 0.0
24/12:30pm 30.8 32.1 22.6 61 5.6 E 20 28 11 15 1008.4 - 0.0
24/12:00pm 30.3 32.8 23.2 65 4.9 E 15 28 8 15 1008.8 1008.6 0.0
24/11:30am 29.2 30.9 23.0 69 4.2 E 19 28 10 15 1009.3 - 0.0
24/11:00am 28.9 31.4 23.2 71 3.9 E 15 24 8 13 1009.7 - 0.0
24/10:30am 28.2 30.5 23.4 75 3.3 ENE 17 24 9 13 1009.9 - 0.0
24/10:00am 27.7 31.3 23.7 79 2.8 E 11 17 6 9 1010.1 - 0.0
24/09:30am 27.3 31.1 24.0 82 2.3 E 11 17 6 9 1010.1 - 0.0
24/09:00am 26.7 31.2 23.9 84 1.9 E 7 17 4 9 1010.0 1009.8 0.0
24/08:30am 25.7 30.3 23.8 89 1.3 ESE 6 9 3 5 1009.9 - 0.0
24/08:00am 25.1 29.6 23.6 91 1.0 S 6 9 3 5 1009.7 - 0.0
24/07:30am 24.8 29.3 23.6 93 0.8 SE 6 6 3 3 1009.2 - 0.0
24/07:00am 23.7 28.8 23.3 98 0.3 SSE 2 4 1 2 1009.0 - 0.0
24/06:30am 23.7 28.3 23.1 96 0.4 ESE 4 6 2 3 1008.6 - 0.0
24/06:00am 24.0 29.4 23.3 96 0.5 ESE 0 2 0 1 1008.4 1008.2 0.0
24/05:30am 24.1 28.8 23.3 95 0.5 SSE 4 6 2 3 1008.0 - 0.0
24/05:00am 24.3 29.4 23.4 95 0.6 SSE 2 4 1 2 1008.0 - 0.0
24/04:30am 24.5 29.6 23.4 94 0.7 SE 2 4 1 2 1008.0 - 0.0
24/04:00am 24.6 28.7 23.3 92 0.9 E 7 11 4 6 1008.1 - 0.0
24/03:30am 24.6 30.3 23.7 95 0.6 CALM 0 0 0 0 1008.4 - 0.0
24/03:00am 24.7 30.4 23.8 95 0.6 CALM 0 2 0 1 1008.3 1008.1 0.0
24/02:30am 24.6 30.2 23.5 94 0.7 CALM 0 2 0 1 1008.4 - 0.0
24/02:00am 24.8 29.5 23.4 92 1.0 E 4 6 2 3 1008.6 - 0.0
24/01:30am 25.2 29.8 23.2 89 1.4 E 4 6 2 3 1009.1 - 0.0
24/01:00am 25.4 30.1 23.3 88 1.4 SE 4 6 2 3 1009.6 - 0.0
24/12:30am 25.7 30.4 23.4 87 1.6 ESE 4 7 2 4 1009.8 - 0.0
24/12:00am 25.9 30.0 23.2 85 1.8 E 7 13 4 7 1009.8 1009.6 0.0
 
Date/Time
EST
Temp
°C
App
Temp
°C
Dew
Point
Rel
Hum
%
Delta-T
°C
Wind Press
QNH
hPa
Press
MSL
hPa
Rain
since 9 am
mm
Dir
 
Spd
km/h
Gust
km/h
Spd
kts
Gust
kts
23/11:30pm 26.0 29.7 23.2 84 1.9 E 9 15 5 8 1009.7 - 0.0
23/11:00pm 26.3 29.5 23.1 82 2.2 E 11 19 6 10 1009.9 - 0.0
23/10:30pm 26.3 29.7 23.3 83 2.0 E 11 15 6 8 1010.0 - 0.0
23/10:00pm 26.5 30.7 23.4 83 2.1 ESE 7 11 4 6 1010.2 - 0.0
23/09:30pm 26.5 30.9 23.5 83 2.1 ESE 6 7 3 4 1010.0 - 0.0
23/09:00pm 26.5 30.3 24.0 86 1.7 ESE 11 15 6 8 1009.5 1009.3 0.0
23/08:30pm 26.2 31.5 24.9 92 0.9 SE 6 7 3 4 1009.4 - 0.0
23/08:00pm 26.5 32.6 25.1 92 1.0 ESE 2 4 1 2 1009.5 - 0.0
23/07:30pm 26.7 33.0 24.7 89 1.4 CALM 0 2 0 1 1009.3 - 0.0
23/07:00pm 26.8 32.7 24.7 88 1.5 WNW 2 4 1 2 1009.2 - 0.0
23/06:30pm 27.3 33.4 24.5 85 1.9 CALM 0 0 0 0 1008.9 - 0.0
23/06:00pm 28.4 33.3 24.3 78 2.9 ESE 6 7 3 4 1008.6 1008.4 0.0
23/05:30pm 28.6 34.9 24.8 80 2.7 CALM 0 2 0 1 1008.4 - 0.0
23/05:00pm 29.1 33.7 23.8 73 3.7 SE 6 9 3 5 1008.0 - 0.0
23/04:30pm 29.6 33.2 22.4 65 4.9 ENE 7 11 4 6 1007.9 - 0.0
23/04:00pm 29.9 32.7 21.5 60 5.6 ENE 9 17 5 9 1007.9 - 0.0
23/03:30pm 30.2 32.5 22.1 62 5.5 ENE 13 22 7 12 1008.1 - 0.0
23/03:00pm 30.4 33.3 22.5 62 5.4 ENE 11 17 6 9 1008.2 1008.0 0.0
23/02:30pm 29.0 32.0 22.0 66 4.7 E 9 13 5 7 1008.7 - 0.0
23/02:00pm 28.9 30.9 22.9 70 4.1 NNE 17 24 9 13 1009.0 - 0.0
23/01:30pm 30.5 32.1 22.2 61 5.6 E 17 33 9 18 1009.1 - 0.0
23/01:00pm 29.6 31.0 22.8 67 4.6 E 20 28 11 15 1009.5 - 0.0
23/12:30pm 30.2 32.3 23.7 68 4.5 E 19 30 10 16 1009.9 - 0.0
23/12:00pm 29.3 30.1 23.2 69 4.2 ESE 24 30 13 16 1010.1 1009.9 0.0
23/11:30am 29.7 32.4 22.9 67 4.6 E 13 20 7 11 1010.5 - 0.0
23/11:00am 29.6 32.2 23.3 69 4.3 E 15 24 8 13 1010.8 - 0.0
23/10:30am 29.1 31.6 23.2 70 4.0 E 15 24 8 13 1011.2 - 0.0
23/10:00am 28.3 31.1 23.7 76 3.2 E 15 22 8 12 1011.3 - 0.0
23/09:30am 27.8 30.7 23.8 79 2.8 E 15 22 8 12 1011.4 - 0.0
23/09:00am 27.6 30.8 23.7 79 2.7 E 13 20 7 11 1010.8 1010.6 0.0
23/08:30am 26.8 30.6 24.0 84 1.9 E 11 19 6 10 1010.7 - 0.0
23/08:00am 26.1 30.6 24.0 88 1.4 E 7 15 4 8 1010.6 - 0.0
23/07:30am 24.7 29.7 23.8 95 0.6 ESE 4 6 2 3 1010.5 - 0.0
23/07:00am 24.1 29.0 23.6 97 0.3 ENE 4 7 2 4 1010.0 - 0.0
23/06:30am 24.0 28.8 23.5 97 0.3 SSE 4 6 2 3 1009.9 - 0.0
23/06:00am 24.2 28.7 23.6 96 0.4 E 6 9 3 5 1009.3 1009.1 0.0
23/05:30am 24.2 28.5 23.6 96 0.4 E 7 9 4 5 1008.8 - 0.0
23/05:00am 24.1 29.0 23.6 97 0.3 ESE 4 6 2 3 1009.0 - 0.0
23/04:30am 24.2 29.8 23.6 96 0.4 CALM 0 4 0 2 1008.8 - 0.0
23/04:00am 24.1 28.6 23.6 97 0.3 ESE 6 9 3 5 1008.8 - 0.0
23/03:30am 24.3 28.8 23.7 96 0.4 ESE 6 9 3 5 1008.7 - 0.0
23/03:00am 24.4 29.3 23.6 95 0.5 SSE 4 6 2 3 1008.7 1008.5 0.0
23/02:30am 24.4 28.9 23.7 96 0.5 ESE 6 9 3 5 1008.7 - 0.0
23/02:00am 24.7 29.0 23.7 94 0.7 SE 7 11 4 6 1009.1 - 0.0
23/01:30am 24.8 28.8 23.8 94 0.7 ESE 9 13 5 7 1009.4 - 0.0
23/01:00am 25.0 29.1 23.9 94 0.8 E 9 15 5 8 1009.6 - 0.0
23/12:30am 25.0 29.1 24.0 94 0.7 E 9 15 5 8 1009.8 - 0.0
23/12:00am 24.9 29.5 24.1 95 0.5 E 7 13 4 7 1010.3 1010.1 0.0
 
Date/Time
EST
Temp
°C
App
Temp
°C
Dew
Point
Rel
Hum
%
Delta-T
°C
Wind Press
QNH
hPa
Press
MSL
hPa
Rain
since 9 am
mm
Dir
 
Spd
km/h
Gust
km/h
Spd
kts
Gust
kts
22/11:30pm 25.1 29.7 24.2 95 0.6 ESE 7 11 4 6 1010.6 - 0.0
22/11:00pm 25.3 29.6 24.3 94 0.7 ESE 9 13 5 7 1010.7 - 0.0
22/10:30pm 25.5 30.2 24.3 93 0.8 SE 7 11 4 6 1011.1 - 0.0
22/10:00pm 25.6 29.9 24.3 92 0.9 ESE 9 15 5 8 1010.9 - 0.0
22/09:30pm 26.0 30.3 24.3 90 1.2 ESE 9 11 5 6 1011.0 - 0.0
22/09:00pm 26.1 29.6 24.2 89 1.3 ESE 13 19 7 10 1010.5 1010.3 0.0
22/08:30pm 26.2 30.2 24.4 90 1.2 ESE 11 15 6 8 1010.4 - 0.0
22/08:00pm 26.3 29.9 24.3 89 1.4 ESE 13 17 7 9 1010.2 - 0.0
22/07:30pm 26.4 30.4 24.4 89 1.4 ESE 11 17 6 9 1010.0 - 0.0
22/07:00pm 26.7 30.6 24.3 87 1.7 SE 11 17 6 9 1010.1 - 0.0
22/06:30pm 27.1 31.2 24.5 86 1.8 ESE 11 17 6 9 1009.9 - 0.0
22/06:00pm 27.5 29.7 24.0 81 2.4 ESE 19 26 10 14 1009.3 1009.1 0.0
22/05:30pm 28.3 29.0 23.6 75 3.2 ESE 26 37 14 20 1009.2 - 0.0
22/05:00pm 28.4 29.6 23.8 76 3.2 ESE 24 39 13 21 1008.9 - 0.0
22/04:30pm 29.6 30.9 24.0 72 3.9 ESE 24 33 13 18 1008.5 - 0.0
22/04:00pm 29.5 30.0 23.9 72 3.9 ESE 28 39 15 21 1008.5 - 0.0
22/03:30pm 29.5 31.5 25.1 77 3.1 E 24 32 13 17 1008.4 - 0.0
22/03:00pm 28.6 30.8 24.2 77 3.1 E 20 30 11 16 1008.6 1008.4 0.0
22/02:33pm 29.5 31.5 24.0 72 3.8 ENE 20 33 11 18 1008.5 - 0.0
22/02:00pm 30.3 31.8 24.3 70 4.2 NE 24 39 13 21 1008.7 - 0.0
22/01:30pm 30.3 32.3 24.5 71 4.1 E 22 33 12 18 1009.1 - 0.0
22/01:00pm 30.5 32.8 24.1 68 4.5 E 19 30 10 16 1009.5 - 0.0
22/12:30pm 31.4 33.4 24.0 65 5.2 E 20 30 11 16 1009.9 - 0.0
22/12:00pm 30.4 32.3 23.5 66 4.8 E 19 32 10 17 1010.3 1010.1 0.0
22/11:30am 30.4 32.5 23.7 67 4.6 E 19 30 10 16 1010.9 - 0.0
22/11:00am 30.0 32.4 24.2 71 4.0 E 19 26 10 14 1011.5 - 0.0
22/10:30am 29.0 31.4 24.2 75 3.3 E 19 30 10 16 1011.8 - 0.0
22/10:00am 28.8 30.7 23.8 74 3.5 E 20 30 11 16 1011.9 - 0.0
22/09:30am 28.1 31.3 24.3 80 2.6 E 15 22 8 12 1011.8 - 0.0
22/09:00am 27.4 30.6 24.3 83 2.1 E 15 20 8 11 1011.6 1011.4 8.8
22/08:30am 26.3 29.8 24.2 88 1.4 E 13 17 7 9 1011.7 - 8.8
22/08:00am 25.1 29.7 24.2 95 0.6 ESE 7 9 4 5 1011.7 - 8.8
22/07:30am 24.7 29.8 24.1 96 0.4 ESE 4 6 2 3 1011.5 - 8.8
22/07:00am 24.4 29.8 23.9 97 0.3 S 2 6 1 3 1011.0 - 8.8
22/06:30am 24.3 28.8 23.9 98 0.3 SE 7 9 4 5 1010.4 - 8.8
22/06:00am 24.5 28.6 23.9 96 0.4 SE 9 13 5 7 1010.3 1010.1 8.8
22/05:30am 24.5 28.6 24.0 97 0.3 SE 9 11 5 6 1010.2 - 8.8
22/05:00am 24.4 29.1 23.9 97 0.3 SE 6 7 3 4 1010.1 - 8.8
22/04:30am 24.6 29.1 23.9 96 0.5 ESE 7 9 4 5 1010.0 - 8.8
22/04:00am 24.7 29.2 23.9 95 0.5 ESE 7 11 4 6 1010.1 - 8.8
22/03:30am 24.7 28.8 24.0 96 0.5 ESE 9 11 5 6 1010.1 - 8.8
22/03:00am 24.9 29.6 23.9 94 0.7 SE 6 9 3 5 1010.2 1010.0 8.8
22/02:30am 24.9 28.2 23.9 94 0.7 ESE 13 19 7 10 1009.7 - 8.8
22/02:00am 24.9 28.2 23.9 94 0.7 ESE 13 17 7 9 1009.8 - 8.8
22/01:30am 24.8 28.1 23.8 94 0.7 ESE 13 17 7 9 1010.2 - 8.8
22/01:00am 24.9 28.6 23.9 94 0.7 ESE 11 19 6 10 1010.5 - 8.8
22/12:30am 25.2 27.7 23.8 92 1.0 ESE 17 22 9 12 1010.8 - 8.8
22/12:00am 25.2 28.1 23.9 92 0.9 ESE 15 19 8 10 1011.1 1010.9 8.8
 
Date/Time
EST
Temp
°C
App
Temp
°C
Dew
Point
Rel
Hum
%
Delta-T
°C
Wind Press
QNH
hPa
Press
MSL
hPa
Rain
since 9 am
mm
Dir
 
Spd
km/h
Gust
km/h
Spd
kts
Gust
kts
21/11:30pm 25.0 28.9 24.2 95 0.6 ESE 11 17 6 9 1011.1 - 8.8
21/11:00pm 25.0 29.4 24.4 96 0.4 ESE 9 15 5 8 1011.3 - 8.8
21/10:30pm 25.0 29.0 24.4 96 0.4 ESE 11 13 6 7 1011.5 - 8.8
21/10:00pm 25.3 29.3 24.4 95 0.6 ESE 11 20 6 11 1011.5 - 8.8
21/09:55pm 25.2 29.6 24.5 96 0.5 ESE 9 11 5 6 1011.5 - 8.8
21/09:39pm 25.2 30.1 24.4 95 0.6 SE 6 7 3 4 1011.8 - 8.6
21/09:30pm 25.2 30.2 24.5 96 0.5 S 6 7 3 4 1011.8 - 8.6
21/09:00pm 25.1 30.7 24.3 95 0.6 SE 2 4 1 2 1011.7 1011.5 8.6
21/08:30pm 25.2 31.0 24.5 96 0.5 S 2 4 1 2 1011.4 - 8.6
21/08:00pm 25.1 30.0 24.3 95 0.6 SE 6 7 3 4 1011.0 - 8.6
21/07:30pm 25.2 29.8 24.2 94 0.7 SE 7 13 4 7 1010.8 - 8.6
21/07:02pm 25.6 28.1 24.4 93 0.8 ESE 19 28 10 15 1010.4 - 8.6
21/07:00pm 25.6 28.0 24.3 92 0.9 ESE 19 28 10 15 1010.4 - 8.6
21/06:31pm 26.1 32.0 25.3 95 0.6 SE 4 9 2 5 1010.3 - 8.0
21/06:30pm 26.1 32.4 25.3 95 0.6 SE 2 9 1 5 1010.3 - 7.8
21/06:04pm 25.8 31.9 25.0 95 0.6 SSE 2 4 1 2 1009.8 - 7.0
21/06:00pm 25.7 31.8 25.0 96 0.5 SE 2 6 1 3 1009.7 1009.5 7.0
21/05:58pm 25.7 31.3 24.9 95 0.6 SE 4 6 2 3 1009.7 - 7.0
21/05:45pm 25.5 30.7 24.8 96 0.5 ESE 6 9 3 5 1009.7 - 6.8
21/05:30pm 25.7 28.4 24.7 94 0.7 NE 19 30 10 16 1009.6 - 2.6
21/05:29pm 25.8 28.8 24.7 94 0.8 NE 17 30 9 16 1009.5 - 2.2
21/05:13pm 26.5 31.8 25.2 92 0.9 ENE 7 11 4 6 1009.1 - 1.2
21/05:00pm 26.6 30.8 24.7 89 1.3 ENE 11 19 6 10 1009.0 - 1.0
21/04:50pm 27.1 29.4 24.5 86 1.8 ENE 20 30 11 16 1009.1 - 0.4
21/04:30pm 29.1 32.1 23.3 71 4.0 E 13 20 7 11 1008.7 - 0.0
21/04:00pm 29.7 30.3 22.8 66 4.7 ESE 24 39 13 21 1008.3 - 0.0
21/03:30pm 30.9 34.0 23.5 64 5.1 ESE 13 22 7 12 1008.1 - 0.0
21/03:00pm 31.6 32.4 22.5 58 6.2 E 22 33 12 18 1008.1 1007.9 0.0
21/02:30pm 30.9 32.4 22.7 61 5.6 E 19 28 10 15 1008.2 - 0.0
21/02:00pm 31.7 33.4 23.1 60 5.9 E 19 26 10 14 1008.4 - 0.0
21/01:30pm 30.5 31.9 22.9 64 5.2 E 20 30 11 16 1008.6 - 0.0

Other Formats:

Comma delimited format used in spreadsheet applications
http://www.bom.gov.au/fwo/IDQ60801/IDQ60801.94170.axf

JavaScript Object Notation format (JSON) in row-major order
http://www.bom.gov.au/fwo/IDQ60801/IDQ60801.94170.json